createdAt,value
2018-07-22T00:02:05.482Z,99365.17
2018-07-22T00:07:10.321Z,99370.64
2018-07-22T00:12:15.045Z,99371.20
2018-07-22T00:17:19.781Z,99363.28
2018-07-22T00:22:24.589Z,99367.38
2018-07-22T00:27:29.423Z,99370.66
2018-07-22T00:32:34.179Z,99377.48
2018-07-22T00:37:39.365Z,99376.41
2018-07-22T00:42:43.773Z,99384.08
2018-07-22T00:47:48.620Z,99384.06
2018-07-22T00:52:53.540Z,99390.33
2018-07-22T00:57:58.213Z,99397.41
2018-07-22T01:03:02.907Z,99396.59
2018-07-22T01:08:07.612Z,99382.08
2018-07-22T01:13:12.498Z,99382.39
2018-07-22T01:18:17.192Z,99379.92
2018-07-22T01:23:21.983Z,99387.59
2018-07-22T01:28:26.722Z,99382.94
2018-07-22T01:33:31.444Z,99377.73
2018-07-22T01:38:35.977Z,99384.53
2018-07-22T01:43:40.642Z,99379.66
2018-07-22T01:48:45.373Z,99381.59
2018-07-22T01:53:50.140Z,99383.49
2018-07-22T01:58:54.860Z,99385.92
2018-07-22T02:03:59.606Z,99378.83
2018-07-22T02:09:05.389Z,99382.08
2018-07-22T02:14:10.166Z,99379.34
2018-07-22T02:19:14.894Z,99380.70
2018-07-22T02:24:19.620Z,99382.88
2018-07-22T02:29:24.252Z,99385.08
2018-07-22T02:34:28.967Z,99382.63
2018-07-22T02:39:33.745Z,99377.73
2018-07-22T02:44:38.420Z,99374.43
2018-07-22T02:49:43.272Z,99381.77
2018-07-22T02:54:48.082Z,99378.49
2018-07-22T02:59:53.005Z,99384.50
2018-07-22T03:04:57.701Z,99383.14
2018-07-22T03:10:02.514Z,99391.92
2018-07-22T03:15:07.436Z,99386.72
2018-07-22T03:20:12.264Z,99391.61
2018-07-22T03:25:16.928Z,99388.64
2018-07-22T03:30:21.793Z,99394.64
2018-07-22T03:35:26.421Z,99396.02
2018-07-22T03:40:31.287Z,99396.25
2018-07-22T03:45:35.933Z,99394.89
2018-07-22T03:50:40.672Z,99394.30
2018-07-22T03:55:45.399Z,99389.31
2018-07-22T04:00:50.249Z,99393.51
2018-07-22T04:05:55.065Z,99401.47
2018-07-22T04:10:59.953Z,99405.00
2018-07-22T04:16:04.687Z,99397.85
2018-07-22T04:21:09.425Z,99398.42
2018-07-22T04:26:14.151Z,99401.70
2018-07-22T04:31:18.913Z,99407.66
2018-07-22T04:36:23.626Z,99409.88
2018-07-22T04:41:28.359Z,99417.22
2018-07-22T04:46:33.356Z,99417.52
2018-07-22T04:51:38.141Z,99416.95
2018-07-22T04:56:42.945Z,99420.48
2018-07-22T05:01:47.621Z,99423.20
2018-07-22T05:06:52.337Z,99424.03
2018-07-22T05:11:57.120Z,99426.22
2018-07-22T05:17:01.852Z,99434.14
2018-07-22T05:22:06.727Z,99434.39
2018-07-22T05:27:11.573Z,99439.33
2018-07-22T05:32:16.283Z,99440.95
2018-07-22T05:37:21.047Z,99444.19
2018-07-22T05:42:25.731Z,99450.22
2018-07-22T05:47:30.434Z,99447.23
2018-07-22T05:52:35.357Z,99449.64
2018-07-22T05:57:40.249Z,99462.70
2018-07-22T06:02:45.046Z,99470.91
2018-07-22T06:07:49.971Z,99470.08
2018-07-22T06:12:54.746Z,99480.18
2018-07-22T06:17:59.590Z,99479.02
2018-07-22T06:23:04.397Z,99485.24
2018-07-22T06:28:09.132Z,99482.37
2018-07-22T06:33:13.899Z,99486.54
2018-07-22T06:38:18.738Z,99487.61
2018-07-22T06:43:23.456Z,99492.55
2018-07-22T06:48:28.245Z,99489.44
2018-07-22T06:53:33.051Z,99490.55
2018-07-22T06:58:37.756Z,99494.41
2018-07-22T07:03:42.525Z,99490.80
2018-07-22T07:08:47.282Z,99495.14
2018-07-22T07:13:52.014Z,99501.23
2018-07-22T07:18:56.763Z,99501.57
2018-07-22T07:24:01.246Z,99504.38
2018-07-22T07:29:06.037Z,99508.13
2018-07-22T07:34:10.788Z,99503.89
2018-07-22T07:39:15.506Z,99499.67
2018-07-22T07:44:20.433Z,99507.64
2018-07-22T07:49:25.103Z,99511.45
2018-07-22T07:54:30.278Z,99505.38
2018-07-22T07:59:34.719Z,99503.64
2018-07-22T08:04:39.484Z,99512.66
2018-07-22T08:09:44.256Z,99513.09
2018-07-22T08:14:49.052Z,99519.02
2018-07-22T08:19:53.899Z,99515.25
2018-07-22T08:24:58.690Z,99520.98
2018-07-22T08:30:03.610Z,99529.16
2018-07-22T08:35:08.364Z,99522.31
2018-07-22T08:40:13.144Z,99525.64
2018-07-22T08:45:17.948Z,99514.98
2018-07-22T08:50:22.786Z,99517.69
2018-07-22T08:55:27.547Z,99510.91
2018-07-22T09:00:32.265Z,99517.61
2018-07-22T09:05:36.963Z,99522.11
2018-07-22T09:10:41.686Z,99528.09
2018-07-22T09:15:46.634Z,99532.02
2018-07-22T09:20:51.383Z,99527.81
2018-07-22T09:25:56.257Z,99527.92
2018-07-22T09:31:01.130Z,99528.23
2018-07-22T09:36:06.008Z,99535.12
2018-07-22T09:41:10.694Z,99541.38
2018-07-22T09:46:15.565Z,99541.20
2018-07-22T09:51:20.345Z,99545.30
2018-07-22T09:56:31.733Z,99550.01
2018-07-22T10:01:36.609Z,99553.16
2018-07-22T10:06:41.460Z,99547.98
2018-07-22T10:11:46.305Z,99541.98
2018-07-22T10:16:51.043Z,99539.03
2018-07-22T10:21:55.895Z,99532.92
2018-07-22T10:27:00.625Z,99532.78
2018-07-22T10:32:05.569Z,99527.86
2018-07-22T10:37:10.327Z,99539.41
2018-07-22T10:42:15.074Z,99526.05
2018-07-22T10:47:19.986Z,99526.55
2018-07-22T10:52:24.892Z,99523.41
2018-07-22T10:57:29.757Z,99521.13
2018-07-22T11:02:34.498Z,99516.91
2018-07-22T11:07:39.421Z,99518.06
2018-07-22T11:12:44.221Z,99510.55
2018-07-22T11:17:49.062Z,99517.83
2018-07-22T11:22:54.873Z,99521.54
2018-07-22T11:27:59.604Z,99515.09
2018-07-22T11:33:04.487Z,99520.45
2018-07-22T11:38:09.370Z,99518.42
2018-07-22T11:43:14.166Z,99518.48
2018-07-22T11:48:18.893Z,99525.83
2018-07-22T11:53:23.816Z,99520.83
2018-07-22T11:58:28.573Z,99516.67
2018-07-22T12:03:33.319Z,99521.48
2018-07-22T12:08:38.126Z,99515.85
2018-07-22T12:13:42.880Z,99517.38
2018-07-22T12:18:47.595Z,99508.81
2018-07-22T12:23:52.294Z,99504.11
2018-07-22T12:28:57.120Z,99503.81
2018-07-22T12:34:01.867Z,99494.00
2018-07-22T12:39:13.962Z,99493.78
2018-07-22T12:44:18.833Z,99487.48
2018-07-22T12:49:23.802Z,99483.95
2018-07-22T12:54:29.477Z,99488.89
2018-07-22T12:59:34.368Z,99488.82
2018-07-22T13:04:39.081Z,99485.03
2018-07-22T13:09:44.149Z,99483.28
2018-07-22T13:14:48.899Z,99476.98
2018-07-22T13:19:54.689Z,99474.14
2018-07-22T13:24:59.645Z,99476.78
2018-07-22T13:30:05.281Z,99475.15
2018-07-22T13:35:10.225Z,99477.72
2018-07-22T13:40:14.965Z,99473.78
2018-07-22T13:45:19.735Z,99476.94
2018-07-22T13:50:24.493Z,99477.59
2018-07-22T13:55:29.354Z,99468.34
2018-07-22T14:00:34.418Z,99467.08
2018-07-22T14:05:39.276Z,99471.58
2018-07-22T14:10:44.129Z,99466.72
2018-07-22T14:15:49.022Z,99465.25
2018-07-22T14:20:53.750Z,99465.59
2018-07-22T14:25:58.584Z,99463.19
2018-07-22T14:31:03.367Z,99462.00
2018-07-22T14:36:08.145Z,99461.14
2018-07-22T14:41:12.925Z,99464.25
2018-07-22T14:46:17.780Z,99453.13
2018-07-22T14:51:22.597Z,99447.52
2018-07-22T14:56:27.521Z,99451.11
2018-07-22T15:01:32.338Z,99449.81
2018-07-22T15:06:37.114Z,99449.38
2018-07-22T15:11:42.574Z,99457.17
2018-07-22T15:16:47.364Z,99460.93
2018-07-22T15:21:52.191Z,99447.23
2018-07-22T15:26:57.276Z,99450.99
2018-07-22T15:32:02.217Z,99450.95
2018-07-22T15:37:07.210Z,99450.73
2018-07-22T15:42:12.033Z,99452.88
2018-07-22T15:47:16.784Z,99449.02
2018-07-22T15:52:21.568Z,99445.05
2018-07-22T15:57:26.643Z,99448.88
2018-07-22T16:02:31.528Z,99447.67
2018-07-22T16:07:36.687Z,99448.50
2018-07-22T16:12:41.708Z,99450.34
2018-07-22T16:17:46.418Z,99446.69
2018-07-22T16:22:51.210Z,99442.86
2018-07-22T16:27:56.252Z,99453.91
2018-07-22T16:33:00.947Z,99444.61
2018-07-22T16:38:05.732Z,99458.58
2018-07-22T16:43:10.523Z,99458.11
2018-07-22T16:48:15.657Z,99456.89
2018-07-22T16:53:20.446Z,99457.59
2018-07-22T16:58:25.320Z,99471.55
2018-07-22T17:03:30.066Z,99489.84
2018-07-22T17:08:34.923Z,99499.00
2018-07-22T17:13:39.682Z,99488.62
2018-07-22T17:18:45.007Z,99481.22
2018-07-22T17:23:50.319Z,99489.66
2018-07-22T17:28:55.304Z,99490.21
2018-07-22T17:34:00.051Z,99497.20
2018-07-22T17:39:07.260Z,99505.27
2018-07-22T17:44:12.166Z,99520.58
2018-07-22T17:49:16.879Z,99527.33
2018-07-22T17:54:21.643Z,99529.73
2018-07-22T17:59:26.979Z,99512.76
2018-07-22T18:04:31.716Z,99525.83
2018-07-22T18:09:36.525Z,99540.20
2018-07-22T18:14:41.292Z,99560.05
2018-07-22T18:19:46.192Z,99560.28
2018-07-22T18:24:50.962Z,99565.50
2018-07-22T18:29:55.776Z,99557.02
2018-07-22T18:35:00.767Z,99559.05
2018-07-22T18:40:05.933Z,99561.75
2018-07-22T18:45:11.592Z,99564.27
2018-07-22T18:50:16.640Z,99571.50
2018-07-22T18:55:22.145Z,99570.73
2018-07-22T19:00:26.988Z,99563.41
2018-07-22T19:05:32.340Z,99573.02
2018-07-22T19:10:38.399Z,99579.62
2018-07-22T19:15:43.683Z,99581.28
2018-07-22T19:20:48.673Z,99591.95
2018-07-22T19:25:54.627Z,99592.27
2018-07-22T19:30:59.520Z,99596.39
2018-07-22T19:36:04.528Z,99602.42
2018-07-22T19:41:09.376Z,99607.36
2018-07-22T19:46:14.213Z,99612.30
2018-07-22T19:51:19.231Z,99613.89
2018-07-22T19:56:24.160Z,99612.53
2018-07-22T20:01:28.946Z,99614.19
2018-07-22T20:06:33.824Z,99613.37
2018-07-22T20:11:38.586Z,99619.38
2018-07-22T20:16:43.364Z,99626.77
2018-07-22T20:21:48.440Z,99632.75
2018-07-22T20:26:54.267Z,99642.86
2018-07-22T20:31:59.149Z,99644.77
2018-07-22T20:37:03.909Z,99647.79
2018-07-22T20:42:08.960Z,99643.13
2018-07-22T20:47:13.795Z,99645.30
2018-07-22T20:52:18.633Z,99652.13
2018-07-22T20:57:23.525Z,99655.69
2018-07-22T21:02:28.316Z,99665.24
2018-07-22T21:07:33.105Z,99668.48
2018-07-22T21:13:25.914Z,99662.77
2018-07-22T21:18:30.669Z,99669.88
2018-07-22T21:23:35.518Z,99676.69
2018-07-22T21:28:40.376Z,99683.24
2018-07-22T21:33:45.140Z,99680.23
2018-07-22T21:38:49.964Z,99684.60
2018-07-22T21:43:54.717Z,99690.63
2018-07-22T21:48:59.381Z,99693.91
2018-07-22T21:54:04.105Z,99697.14
2018-07-22T21:59:09.057Z,99695.77
2018-07-22T22:04:13.889Z,99696.58
2018-07-22T22:09:18.670Z,99698.75
2018-07-22T22:14:23.616Z,99702.25
2018-07-22T22:19:28.448Z,99705.70
2018-07-22T22:24:33.220Z,99699.73
2018-07-22T22:29:38.078Z,99705.11
2018-07-22T22:34:42.857Z,99696.66
2018-07-22T22:39:47.316Z,99699.13
2018-07-22T22:44:52.025Z,99689.83
2018-07-22T22:49:56.778Z,99696.04
2018-07-22T22:55:01.573Z,99693.84
2018-07-22T23:00:07.588Z,99699.00
2018-07-22T23:05:12.396Z,99685.34
2018-07-22T23:10:17.176Z,99686.73
2018-07-22T23:15:22.074Z,99687.02
2018-07-22T23:20:26.843Z,99692.72
2018-07-22T23:25:31.638Z,99686.51
2018-07-22T23:30:36.398Z,99689.17
2018-07-22T23:35:41.076Z,99694.06
2018-07-22T23:40:45.769Z,99693.52
2018-07-22T23:45:50.492Z,99693.33
2018-07-22T23:50:55.274Z,99699.31
2018-07-22T23:56:00.026Z,99702.51
